This is the latest recevied weather packets stored in our database for station/object N0TKN. If no packets are shown the sender has not sent any weather packets the latest 1 day(s).
| Time | Temp. | Humidity | Pressure | Rain* | Wind** | Luminosity | Snow |
|---|---|---|---|---|---|---|---|
| 1778031318 | 6.67° C | 99% | 1011.6 hPa | 3.3 mm | 0 m/s | 0 W/m² | - |
| 1778030718 | 6.67° C | 99% | 1011.6 hPa | 2.79 mm | 0 m/s | 0 W/m² | - |
| 1778030128 | 6.67° C | 100% | 1011.9 hPa | 2.03 mm | 0 m/s | 1 W/m² | - |
| 1778029515 | 6.67° C | 100% | 1011.9 hPa | 1.78 mm | 0 m/s | 1 W/m² | - |
| 1778028915 | 6.67° C | 100% | 1011.7 hPa | 1.52 mm | 0 m/s | 1 W/m² | - |
| 1778028316 | 6.67° C | 99% | 1011.5 hPa | 1.52 mm | 0 m/s | 2 W/m² | - |
| 1778027721 | 6.67° C | 99% | 1011.7 hPa | 1.27 mm | 0 m/s | 5 W/m² | - |
| 1778027116 | 6.67° C | 99% | 1011.6 hPa | 1.52 mm | 0.45 m/s, 55° | 6 W/m² | - |
| 1778026517 | 6.67° C | 100% | 1011.4 hPa | 1.52 mm | 0.89 m/s, 50° | 9 W/m² | - |
| 1778025917 | 7.22° C | 99% | 1011.5 hPa | 1.27 mm | 0.45 m/s, 41° | 8 W/m² | - |
| 1778025317 | 7.22° C | 99% | 1011 hPa | 1.02 mm | 0.89 m/s, 48° | 8 W/m² | - |
| 1778024717 | 7.22° C | 99% | 1011.2 hPa | 0.76 mm | 0.89 m/s, 45° | 16 W/m² | - |
| 1778024117 | 7.22° C | 100% | 1011.4 hPa | 0.76 mm | 0 m/s | 19 W/m² | - |
| 1778023517 | 7.22° C | 99% | 1011.5 hPa | 0.51 mm | 0.45 m/s, 16° | 23 W/m² | - |
| 1778022917 | 7.22° C | 99% | 1011 hPa | 0.25 mm | 1.34 m/s, 41° | 33 W/m² | - |
| 1778022317 | 7.22° C | 99% | 1011.1 hPa | 0.51 mm | 0.89 m/s, 45° | 31 W/m² | - |
| 1778021718 | 7.22° C | 98% | 1011.4 hPa | 0.25 mm | 1.34 m/s, 30° | 46 W/m² | - |
| 1778021118 | 7.22° C | 98% | 1011.8 hPa | 0.25 mm | 1.79 m/s, 22° | 33 W/m² | - |
| 1778020518 | 7.22° C | 98% | 1011.3 hPa | 0.51 mm | 2.24 m/s, 33° | 52 W/m² | - |
| 1778019918 | 7.22° C | 98% | 1011.4 hPa | 1.52 mm | 2.24 m/s, 25° | 48 W/m² | - |
| 1778019319 | 7.22° C | 98% | 1011.6 hPa | 2.29 mm | 1.34 m/s, 15° | 54 W/m² | - |
| 1778018715 | 7.22° C | 99% | 1011.3 hPa | 2.54 mm | 1.34 m/s, 8° | 51 W/m² | - |
| 1778018126 | 7.78° C | 99% | 1010.5 hPa | 3.05 mm | 1.79 m/s, 27° | 130 W/m² | - |
| 1778017516 | 7.78° C | 99% | 1011 hPa | 3.05 mm | 0.89 m/s, 15° | 74 W/m² | - |
| 1778016916 | 7.22° C | 98% | 1010.7 hPa | 3.05 mm | 0.89 m/s, 40° | 86 W/m² | - |
* Rain latest hour (hover to see other rain measurements)
** Current wind speed in m/s (hover to see current wind gust speed)